createdAt,value
2022-12-31T00:00:16.470Z,7.00
2022-12-31T00:02:43.992Z,5.22
2022-12-31T00:05:11.574Z,6.13
2022-12-31T00:10:05.035Z,6.97
2022-12-31T00:12:31.958Z,6.15
2022-12-31T00:14:59.153Z,6.63
2022-12-31T00:17:26.444Z,7.28
2022-12-31T00:19:53.705Z,6.65
2022-12-31T00:22:21.023Z,6.13
2022-12-31T00:24:48.021Z,6.35
2022-12-31T00:27:15.332Z,6.20
2022-12-31T00:29:42.391Z,5.97
2022-12-31T00:32:09.555Z,6.18
2022-12-31T00:34:36.661Z,6.20
2022-12-31T00:37:04.731Z,6.47
2022-12-31T00:39:31.772Z,6.28
2022-12-31T00:41:58.880Z,6.90
2022-12-31T00:44:25.846Z,5.72
2022-12-31T00:46:53.020Z,6.85
2022-12-31T00:49:19.908Z,6.78
2022-12-31T00:51:47.476Z,5.47
2022-12-31T00:54:15.310Z,6.80
2022-12-31T00:56:42.280Z,5.45
2022-12-31T00:59:09.249Z,5.45
2022-12-31T01:01:39.682Z,7.22
2022-12-31T01:04:13.036Z,5.53
2022-12-31T01:06:41.009Z,6.05
2022-12-31T01:09:09.091Z,6.85
2022-12-31T01:11:36.368Z,5.75
2022-12-31T01:14:07.704Z,5.43
2022-12-31T01:16:42.125Z,6.65
2022-12-31T01:19:12.614Z,6.13
2022-12-31T01:21:41.111Z,6.43
2022-12-31T01:24:09.426Z,6.07
2022-12-31T01:26:37.564Z,6.78
2022-12-31T01:29:06.029Z,5.85
2022-12-31T01:31:38.006Z,6.22
2022-12-31T01:34:07.640Z,5.10
2022-12-31T01:36:36.465Z,7.20
2022-12-31T01:39:06.956Z,6.43
2022-12-31T01:41:38.992Z,7.03
2022-12-31T01:44:11.972Z,6.63
2022-12-31T01:46:47.612Z,7.50
2022-12-31T01:49:17.449Z,6.88
2022-12-31T01:51:52.669Z,6.00
2022-12-31T01:54:22.823Z,7.10
2022-12-31T01:56:52.743Z,6.45
2022-12-31T01:59:22.568Z,6.38
2022-12-31T02:01:53.073Z,6.63
2022-12-31T02:04:25.470Z,7.10
2022-12-31T02:06:57.469Z,7.15
2022-12-31T02:09:26.099Z,6.57
2022-12-31T02:11:53.865Z,6.80
2022-12-31T02:14:29.077Z,6.13
2022-12-31T02:17:34.974Z,5.25
2022-12-31T02:20:38.697Z,5.25
2022-12-31T02:23:42.382Z,5.57
2022-12-31T02:26:31.496Z,6.05
2022-12-31T02:29:42.882Z,5.10
2022-12-31T02:32:17.834Z,5.65
2022-12-31T02:34:59.294Z,5.07
2022-12-31T02:37:30.547Z,4.75
2022-12-31T02:39:58.986Z,5.45
2022-12-31T02:42:26.046Z,6.45
2022-12-31T02:44:53.071Z,4.88
2022-12-31T02:47:34.850Z,7.20
2022-12-31T02:50:11.046Z,4.67
2022-12-31T02:53:19.247Z,4.57
2022-12-31T02:56:21.666Z,4.63
2022-12-31T02:59:27.384Z,4.28
2022-12-31T03:02:14.953Z,3.80
2022-12-31T03:04:54.285Z,4.07
2022-12-31T03:07:24.522Z,4.50
2022-12-31T03:09:51.551Z,3.97
2022-12-31T03:12:40.478Z,3.92
2022-12-31T03:15:20.297Z,4.07
2022-12-31T03:17:59.950Z,3.85
2022-12-31T03:20:50.833Z,5.05
2022-12-31T03:23:24.927Z,4.50
2022-12-31T03:25:53.579Z,5.35
2022-12-31T03:28:24.336Z,4.82
2022-12-31T03:31:03.021Z,4.43
2022-12-31T03:33:37.005Z,4.75
2022-12-31T03:36:10.642Z,5.10
2022-12-31T03:38:37.761Z,4.10
2022-12-31T03:41:04.946Z,4.13
2022-12-31T03:43:32.011Z,5.72
2022-12-31T03:46:01.281Z,5.18
2022-12-31T03:48:28.772Z,5.22
2022-12-31T03:50:55.747Z,5.20
2022-12-31T03:53:22.838Z,5.30
2022-12-31T03:55:53.636Z,5.30
2022-12-31T03:58:21.945Z,5.22
2022-12-31T04:00:49.502Z,5.82
2022-12-31T04:03:16.748Z,4.97
2022-12-31T04:05:43.807Z,4.75
2022-12-31T04:08:10.857Z,5.47
2022-12-31T04:10:37.855Z,5.75
2022-12-31T04:13:06.232Z,5.97
2022-12-31T04:15:33.255Z,5.18
2022-12-31T04:18:00.435Z,6.07
2022-12-31T04:20:27.489Z,4.95
2022-12-31T04:22:54.544Z,5.38
2022-12-31T04:25:21.513Z,4.82
2022-12-31T04:27:48.641Z,5.15
2022-12-31T04:30:15.805Z,6.07
2022-12-31T04:32:42.834Z,5.80
2022-12-31T04:35:11.009Z,6.28
2022-12-31T04:37:38.116Z,6.20
2022-12-31T04:40:07.101Z,6.35
2022-12-31T04:42:35.291Z,5.03
2022-12-31T04:45:02.331Z,4.93
2022-12-31T04:47:30.166Z,5.57
2022-12-31T04:49:57.496Z,6.05
2022-12-31T04:52:24.848Z,5.50
2022-12-31T04:54:51.870Z,6.82
2022-12-31T04:57:18.939Z,6.35
2022-12-31T04:59:46.080Z,11.13
2022-12-31T05:02:13.464Z,16.08
2022-12-31T05:04:40.722Z,11.20
2022-12-31T05:07:08.009Z,10.30
2022-12-31T05:09:35.368Z,19.77
2022-12-31T05:12:02.375Z,9.18
2022-12-31T05:14:29.509Z,6.43
2022-12-31T05:16:59.693Z,6.80
2022-12-31T05:19:27.095Z,7.55
2022-12-31T05:22:17.458Z,6.30
2022-12-31T05:24:44.826Z,6.65
2022-12-31T05:27:12.083Z,8.32
2022-12-31T05:29:39.210Z,8.32
2022-12-31T05:32:06.452Z,7.43
2022-12-31T05:34:33.533Z,8.52
2022-12-31T05:37:00.593Z,7.88
2022-12-31T05:39:27.674Z,9.27
2022-12-31T05:41:54.995Z,7.95
2022-12-31T05:44:22.147Z,8.27
2022-12-31T05:46:49.235Z,8.32
2022-12-31T05:49:16.703Z,6.75
2022-12-31T05:51:44.042Z,6.22
2022-12-31T05:54:12.603Z,5.78
2022-12-31T05:56:39.925Z,7.45
2022-12-31T05:59:07.138Z,6.55
2022-12-31T06:01:34.528Z,6.43
2022-12-31T06:04:01.812Z,6.30
2022-12-31T06:06:28.785Z,7.55
2022-12-31T06:08:56.281Z,6.63
2022-12-31T06:11:23.541Z,8.70
2022-12-31T06:13:51.099Z,7.57
2022-12-31T06:16:18.470Z,6.00
2022-12-31T06:18:50.650Z,6.88
2022-12-31T06:21:19.907Z,7.10
2022-12-31T06:23:48.008Z,6.80
2022-12-31T06:26:16.565Z,7.32
2022-12-31T06:28:43.717Z,7.85
2022-12-31T06:31:13.737Z,8.82
2022-12-31T06:33:41.727Z,6.88
2022-12-31T06:36:12.682Z,7.38
2022-12-31T06:38:41.317Z,7.80
2022-12-31T06:41:14.087Z,7.00
2022-12-31T06:43:42.202Z,7.82
2022-12-31T06:46:12.514Z,7.57
2022-12-31T06:48:43.164Z,6.90
2022-12-31T06:51:17.412Z,7.80
2022-12-31T06:53:46.123Z,6.93
2022-12-31T06:56:26.617Z,7.68
2022-12-31T06:58:58.501Z,7.30
2022-12-31T07:01:41.473Z,6.40
2022-12-31T07:04:31.501Z,7.00
2022-12-31T07:07:13.254Z,7.80
2022-12-31T07:09:59.123Z,6.30
2022-12-31T07:12:52.708Z,7.55
2022-12-31T07:15:19.904Z,7.18
2022-12-31T07:18:24.594Z,8.35
2022-12-31T07:20:52.153Z,8.32
2022-12-31T07:23:19.864Z,7.63
2022-12-31T07:26:35.176Z,9.18
2022-12-31T07:29:23.609Z,8.88
2022-12-31T07:31:50.770Z,8.23
2022-12-31T07:34:44.773Z,8.80
2022-12-31T07:37:23.998Z,9.93
2022-12-31T07:40:16.225Z,8.63
2022-12-31T07:42:52.523Z,11.63
2022-12-31T07:45:35.615Z,11.50
2022-12-31T07:48:03.367Z,11.73
2022-12-31T07:50:30.897Z,12.50
2022-12-31T07:52:58.423Z,12.13
2022-12-31T07:55:26.258Z,12.88
2022-12-31T07:58:06.985Z,11.82
2022-12-31T08:00:34.634Z,12.45
2022-12-31T08:03:02.111Z,14.32
2022-12-31T08:06:05.333Z,12.65
2022-12-31T08:08:33.165Z,13.82
2022-12-31T08:11:28.483Z,14.30
2022-12-31T08:14:00.735Z,12.38
2022-12-31T08:16:29.269Z,15.93
2022-12-31T08:19:01.104Z,13.02
2022-12-31T08:21:58.669Z,12.33
2022-12-31T08:24:27.549Z,13.98
2022-12-31T08:27:30.022Z,14.00
2022-12-31T08:30:12.542Z,13.32
2022-12-31T08:32:53.118Z,13.30
2022-12-31T08:36:08.723Z,14.32
2022-12-31T08:39:05.505Z,11.90
2022-12-31T08:41:42.636Z,12.13
2022-12-31T08:44:35.315Z,11.13
2022-12-31T08:47:27.346Z,10.27
2022-12-31T08:49:55.976Z,10.82
2022-12-31T08:52:25.884Z,9.48
2022-12-31T08:54:53.987Z,8.90
2022-12-31T08:57:37.337Z,8.82
2022-12-31T09:00:13.476Z,7.65
2022-12-31T09:03:12.038Z,8.10
2022-12-31T09:05:53.207Z,9.35
2022-12-31T09:08:43.608Z,8.60
2022-12-31T09:11:22.905Z,10.00
2022-12-31T09:14:14.854Z,10.05
2022-12-31T09:17:10.974Z,8.95
2022-12-31T09:19:38.605Z,8.00
2022-12-31T09:22:06.695Z,8.70
2022-12-31T09:24:35.690Z,8.15
2022-12-31T09:27:50.172Z,8.35
2022-12-31T09:30:19.682Z,7.68
2022-12-31T09:33:01.273Z,7.45
2022-12-31T09:35:39.043Z,7.33
2022-12-31T09:38:31.902Z,7.32
2022-12-31T09:41:16.721Z,6.03
2022-12-31T09:44:03.104Z,7.60
2022-12-31T09:46:59.015Z,6.43
2022-12-31T09:49:39.707Z,7.28
2022-12-31T09:52:31.439Z,8.48
2022-12-31T09:55:07.825Z,5.07
2022-12-31T09:57:56.614Z,7.18
2022-12-31T10:00:34.772Z,6.53
2022-12-31T10:03:22.170Z,6.75
2022-12-31T10:06:27.396Z,8.20
2022-12-31T10:09:18.162Z,7.32
2022-12-31T10:12:06.739Z,7.90
2022-12-31T10:15:04.230Z,7.05
2022-12-31T10:17:49.612Z,6.20
2022-12-31T10:20:54.797Z,6.50
2022-12-31T10:23:59.743Z,6.25
2022-12-31T10:26:37.621Z,7.18
2022-12-31T10:29:47.563Z,7.15
2022-12-31T10:32:19.814Z,7.78
2022-12-31T10:35:23.231Z,6.57
2022-12-31T10:38:00.333Z,6.50
2022-12-31T10:40:59.678Z,6.15
2022-12-31T10:44:04.967Z,6.88
2022-12-31T10:46:55.724Z,6.97
2022-12-31T10:49:44.393Z,6.60
2022-12-31T10:52:27.034Z,6.40
2022-12-31T10:55:04.808Z,5.65
2022-12-31T10:58:03.829Z,6.70
2022-12-31T11:00:48.917Z,7.45
2022-12-31T11:03:40.253Z,7.10
2022-12-31T11:06:30.729Z,7.20
2022-12-31T11:09:17.201Z,5.78
2022-12-31T11:12:11.786Z,7.15
2022-12-31T11:14:59.398Z,6.80
2022-12-31T11:17:40.118Z,5.07
2022-12-31T11:20:37.461Z,5.72
2022-12-31T11:23:31.821Z,4.57
2022-12-31T11:25:59.771Z,5.30
2022-12-31T11:28:59.598Z,6.00
2022-12-31T11:31:42.202Z,5.85
2022-12-31T11:37:17.716Z,4.82
2022-12-31T11:40:02.514Z,5.20
2022-12-31T11:42:47.823Z,5.28
2022-12-31T11:45:23.147Z,4.40
2022-12-31T11:51:27.274Z,5.07
2022-12-31T11:54:33.508Z,4.95
2022-12-31T11:57:25.156Z,5.40
2022-12-31T12:00:21.744Z,4.28
2022-12-31T12:02:58.900Z,4.90
2022-12-31T12:05:28.537Z,4.75
2022-12-31T12:07:57.398Z,5.10
2022-12-31T12:10:35.287Z,5.25
2022-12-31T12:13:13.603Z,4.95
2022-12-31T12:15:49.874Z,3.70
2022-12-31T12:18:29.225Z,4.22
2022-12-31T12:21:14.993Z,5.15
2022-12-31T12:24:04.021Z,3.67
2022-12-31T12:26:42.858Z,4.07
2022-12-31T12:29:16.129Z,4.68
2022-12-31T12:32:13.732Z,4.78
2022-12-31T12:34:49.448Z,5.43
2022-12-31T12:37:36.588Z,5.63
2022-12-31T12:40:31.413Z,5.68
2022-12-31T12:43:03.680Z,5.20
2022-12-31T12:45:51.405Z,5.97
2022-12-31T12:48:31.616Z,6.22
2022-12-31T12:51:03.867Z,5.80
2022-12-31T12:53:57.770Z,5.93
2022-12-31T12:56:31.455Z,5.50
2022-12-31T12:59:36.891Z,6.20
2022-12-31T13:02:24.368Z,5.05
2022-12-31T13:05:01.628Z,4.95
2022-12-31T13:08:06.979Z,6.47
2022-12-31T13:10:51.156Z,6.18
2022-12-31T13:13:43.802Z,6.78
2022-12-31T13:16:35.640Z,6.07
2022-12-31T13:19:17.166Z,6.20
2022-12-31T13:21:47.606Z,5.60
2022-12-31T13:24:15.581Z,5.95
2022-12-31T13:26:55.157Z,5.85
2022-12-31T13:29:28.456Z,5.75
2022-12-31T13:34:39.880Z,5.15
2022-12-31T13:37:35.020Z,5.57
2022-12-31T13:40:13.763Z,6.65
2022-12-31T13:42:53.246Z,5.68
2022-12-31T13:45:32.782Z,6.40
2022-12-31T13:48:22.797Z,7.28
2022-12-31T13:51:02.057Z,7.43
2022-12-31T13:53:38.721Z,6.80
2022-12-31T13:56:24.579Z,6.78
2022-12-31T13:59:04.555Z,6.88
2022-12-31T14:02:04.032Z,6.50
2022-12-31T14:04:40.835Z,6.93
2022-12-31T14:07:26.645Z,6.97
2022-12-31T14:09:59.968Z,7.82
2022-12-31T14:12:57.311Z,8.13
2022-12-31T14:15:33.892Z,6.85
2022-12-31T14:18:31.472Z,7.00
2022-12-31T14:21:03.219Z,5.00
2022-12-31T14:23:53.884Z,7.07
2022-12-31T14:26:38.603Z,6.47
2022-12-31T14:29:19.268Z,7.70
2022-12-31T14:31:49.607Z,23.00
2022-12-31T14:34:36.277Z,10.35
2022-12-31T14:37:28.475Z,16.10
2022-12-31T14:40:08.133Z,18.97
2022-12-31T14:43:11.186Z,12.02
2022-12-31T14:46:00.279Z,11.32
2022-12-31T14:48:43.484Z,12.90
2022-12-31T14:51:13.078Z,12.85
2022-12-31T14:53:40.405Z,16.70
2022-12-31T14:56:30.153Z,14.20
2022-12-31T14:59:01.939Z,8.93
2022-12-31T15:01:29.954Z,12.53
2022-12-31T15:03:58.406Z,20.40
2022-12-31T15:06:50.077Z,12.75
2022-12-31T15:09:17.099Z,20.92
2022-12-31T15:12:11.999Z,20.67
2022-12-31T15:14:42.006Z,17.35
2022-12-31T15:17:18.046Z,11.60
2022-12-31T15:19:53.169Z,17.83
2022-12-31T15:22:36.910Z,20.23
2022-12-31T15:25:24.491Z,21.40
2022-12-31T15:27:53.316Z,8.40
2022-12-31T15:30:32.929Z,8.70
2022-12-31T15:33:05.462Z,9.30
2022-12-31T15:35:45.781Z,8.20
2022-12-31T15:38:15.580Z,19.20
2022-12-31T15:40:51.076Z,15.60
2022-12-31T15:43:33.078Z,15.07
2022-12-31T15:46:00.901Z,7.47
2022-12-31T15:48:38.622Z,7.88
2022-12-31T15:51:08.114Z,9.13
2022-12-31T15:53:41.654Z,11.27
2022-12-31T15:56:19.161Z,16.77
2022-12-31T15:58:47.760Z,12.27
2022-12-31T16:01:21.176Z,15.13
2022-12-31T16:03:55.842Z,18.08
2022-12-31T16:06:23.365Z,17.38
2022-12-31T16:08:50.905Z,13.05
2022-12-31T16:11:18.912Z,19.10
2022-12-31T16:13:49.956Z,22.30
2022-12-31T16:16:22.052Z,13.95
2022-12-31T16:18:53.358Z,15.02
2022-12-31T16:21:34.403Z,41.53
2022-12-31T16:24:07.690Z,80.80
2022-12-31T16:26:48.800Z,94.45
2022-12-31T16:29:19.337Z,51.90
2022-12-31T16:31:48.622Z,25.88
2022-12-31T16:34:19.652Z,15.23
2022-12-31T16:37:07.809Z,11.43
2022-12-31T16:39:39.877Z,15.38
2022-12-31T16:42:19.048Z,17.95
2022-12-31T16:44:47.618Z,10.68
2022-12-31T16:47:24.250Z,15.18
2022-12-31T16:50:01.774Z,13.30
2022-12-31T16:52:36.566Z,10.75
2022-12-31T16:55:10.640Z,9.40
2022-12-31T16:57:38.552Z,8.05
2022-12-31T17:00:07.841Z,8.70
2022-12-31T17:02:39.515Z,14.55
2022-12-31T17:05:19.945Z,9.40
2022-12-31T17:07:47.825Z,9.52
2022-12-31T17:10:17.089Z,7.20
2022-12-31T17:13:27.038Z,7.13
2022-12-31T17:15:43.970Z,9.18
2022-12-31T17:18:20.164Z,8.30
2022-12-31T17:20:48.023Z,10.05
2022-12-31T17:23:25.245Z,6.80
2022-12-31T17:25:59.621Z,12.88
2022-12-31T17:28:32.381Z,8.48
2022-12-31T17:33:30.883Z,9.80
2022-12-31T17:36:15.160Z,7.05
2022-12-31T17:38:42.794Z,5.50
2022-12-31T17:41:30.090Z,6.43
2022-12-31T17:43:58.138Z,4.72
2022-12-31T17:46:25.879Z,4.60
2022-12-31T17:49:03.075Z,4.55
2022-12-31T17:51:30.400Z,6.63
2022-12-31T17:54:00.371Z,6.25
2022-12-31T17:56:27.540Z,4.63
2022-12-31T17:58:54.990Z,5.50
2022-12-31T18:01:23.929Z,4.75
2022-12-31T18:03:51.293Z,5.88
2022-12-31T18:06:19.733Z,6.30
2022-12-31T18:08:47.510Z,5.10
2022-12-31T18:11:17.682Z,4.13
2022-12-31T18:13:44.913Z,5.45
2022-12-31T18:16:12.148Z,4.03
2022-12-31T18:18:41.190Z,4.63
2022-12-31T18:21:18.321Z,5.43
2022-12-31T18:23:47.228Z,5.18
2022-12-31T18:26:16.780Z,5.45
2022-12-31T18:28:44.069Z,5.15
2022-12-31T18:31:16.817Z,6.03
2022-12-31T18:33:47.054Z,4.43
2022-12-31T18:36:16.098Z,6.45
2022-12-31T18:38:43.513Z,6.78
2022-12-31T18:41:34.888Z,5.55
2022-12-31T18:44:02.226Z,6.63
2022-12-31T18:46:29.696Z,6.38
2022-12-31T18:48:56.773Z,6.10
2022-12-31T18:51:31.444Z,5.57
2022-12-31T18:54:00.967Z,5.95
2022-12-31T18:56:28.400Z,5.85
2022-12-31T18:58:55.531Z,5.65
2022-12-31T19:01:35.800Z,4.55
2022-12-31T19:04:11.441Z,5.05
2022-12-31T19:06:38.942Z,6.65
2022-12-31T19:09:13.161Z,6.07
2022-12-31T19:11:53.304Z,5.45
2022-12-31T19:14:24.186Z,5.22
2022-12-31T19:16:53.591Z,4.93
2022-12-31T19:19:21.335Z,5.13
2022-12-31T19:21:48.798Z,5.90
2022-12-31T19:24:19.934Z,4.95
2022-12-31T19:26:47.671Z,4.72
2022-12-31T19:29:23.600Z,5.13
2022-12-31T19:31:51.423Z,4.80
2022-12-31T19:34:18.898Z,4.05
2022-12-31T19:36:46.319Z,3.28
2022-12-31T19:39:17.631Z,4.28
2022-12-31T19:41:46.152Z,2.72
2022-12-31T19:44:17.929Z,3.47
2022-12-31T19:46:45.913Z,3.67
2022-12-31T19:49:14.323Z,4.90
2022-12-31T19:51:42.733Z,3.55
2022-12-31T19:54:12.868Z,5.07
2022-12-31T19:56:40.164Z,4.22
2022-12-31T19:59:09.754Z,5.22
2022-12-31T20:01:38.460Z,4.15
2022-12-31T20:04:05.812Z,4.43
2022-12-31T20:06:33.028Z,5.78
2022-12-31T20:09:00.180Z,3.55
2022-12-31T20:11:27.643Z,3.92
2022-12-31T20:13:55.423Z,3.58
2022-12-31T20:16:27.048Z,4.65
2022-12-31T20:18:55.327Z,5.32
2022-12-31T20:21:25.748Z,4.07
2022-12-31T20:23:54.961Z,3.28
2022-12-31T20:26:24.182Z,3.88
2022-12-31T20:28:52.245Z,4.53
2022-12-31T20:31:23.519Z,3.65
2022-12-31T20:33:50.939Z,3.83
2022-12-31T20:36:19.075Z,3.55
2022-12-31T20:38:47.159Z,3.88
2022-12-31T20:41:17.690Z,4.30
2022-12-31T20:43:46.153Z,3.60
2022-12-31T20:46:18.195Z,5.30
2022-12-31T20:48:47.042Z,5.82
2022-12-31T20:51:16.868Z,2.35
2022-12-31T20:53:59.159Z,3.95
2022-12-31T20:56:28.985Z,4.15
2022-12-31T20:58:56.492Z,3.90
2022-12-31T21:01:25.267Z,4.97
2022-12-31T21:04:09.649Z,3.63
2022-12-31T21:06:37.092Z,4.90
2022-12-31T21:09:06.951Z,5.30
2022-12-31T21:11:53.188Z,4.28
2022-12-31T21:14:20.597Z,3.70
2022-12-31T21:16:47.899Z,5.55
2022-12-31T21:19:15.179Z,4.85
2022-12-31T21:21:42.229Z,6.20
2022-12-31T21:24:09.983Z,4.82
2022-12-31T21:26:36.964Z,5.50
2022-12-31T21:29:04.447Z,4.75
2022-12-31T21:31:31.793Z,3.38
2022-12-31T21:33:59.127Z,4.85
2022-12-31T21:36:26.599Z,5.80
2022-12-31T21:38:53.923Z,5.03
2022-12-31T21:41:44.257Z,6.40
2022-12-31T21:44:11.707Z,5.63
2022-12-31T21:46:42.620Z,4.60
2022-12-31T21:49:22.093Z,6.00
2022-12-31T21:52:08.291Z,6.60
2022-12-31T21:54:53.907Z,5.32
2022-12-31T21:57:21.284Z,5.85
2022-12-31T22:00:40.435Z,6.32
2022-12-31T22:03:13.973Z,5.63
2022-12-31T22:06:06.051Z,7.10
2022-12-31T22:08:33.440Z,5.47
2022-12-31T22:11:00.646Z,6.03
2022-12-31T22:13:28.024Z,4.13
2022-12-31T22:16:03.880Z,6.63
2022-12-31T22:18:34.677Z,4.82
2022-12-31T22:21:05.854Z,6.50
2022-12-31T22:23:34.635Z,4.75
2022-12-31T22:26:02.976Z,6.82
2022-12-31T22:28:39.552Z,6.45
2022-12-31T22:31:11.773Z,7.30
2022-12-31T22:33:39.516Z,6.13
2022-12-31T22:36:10.730Z,5.70
2022-12-31T22:38:38.688Z,5.53
2022-12-31T22:41:08.796Z,7.00
2022-12-31T22:43:39.424Z,6.13
2022-12-31T22:46:08.544Z,7.10
2022-12-31T22:48:36.050Z,8.07
2022-12-31T22:51:03.577Z,8.15
2022-12-31T22:53:30.807Z,6.50
2022-12-31T22:55:58.841Z,6.70
2022-12-31T22:58:26.877Z,6.22
2022-12-31T23:00:54.933Z,6.07
2022-12-31T23:03:22.577Z,5.97
2022-12-31T23:05:54.421Z,7.28
2022-12-31T23:08:23.945Z,7.57
2022-12-31T23:11:00.597Z,7.45
2022-12-31T23:13:50.992Z,6.65
2022-12-31T23:16:38.869Z,5.85
2022-12-31T23:19:25.898Z,4.88
2022-12-31T23:22:12.607Z,7.68
2022-12-31T23:24:40.339Z,6.80
2022-12-31T23:27:10.112Z,6.78
2022-12-31T23:29:46.274Z,7.75
2022-12-31T23:32:16.474Z,5.50
2022-12-31T23:34:45.597Z,5.88
2022-12-31T23:37:14.426Z,6.10
2022-12-31T23:39:42.756Z,5.55
2022-12-31T23:42:10.808Z,5.85
2022-12-31T23:44:38.180Z,6.90
2022-12-31T23:47:08.596Z,6.60
2022-12-31T23:49:36.198Z,6.68
2022-12-31T23:52:03.731Z,7.07
2022-12-31T23:54:32.418Z,6.47
2022-12-31T23:56:59.911Z,6.78
2022-12-31T23:59:27.510Z,5.45
